createdAt,value
2019-03-05T00:01:47.712Z,2.40
2019-03-05T00:04:14.263Z,2.30
2019-03-05T00:06:40.634Z,2.17
2019-03-05T00:09:10.191Z,2.47
2019-03-05T00:11:36.576Z,2.37
2019-03-05T00:14:03.123Z,3.63
2019-03-05T00:16:29.691Z,1.33
2019-03-05T00:18:56.151Z,4.67
2019-03-05T00:21:22.507Z,1.63
2019-03-05T00:23:51.663Z,2.00
2019-03-05T00:26:20.027Z,2.43
2019-03-05T00:28:51.528Z,1.77
2019-03-05T00:31:19.916Z,2.07
2019-03-05T00:33:48.159Z,1.83
2019-03-05T00:36:16.509Z,2.00
2019-03-05T00:38:44.822Z,2.20
2019-03-05T00:41:13.179Z,2.40
2019-03-05T00:43:41.555Z,1.97
2019-03-05T00:46:12.926Z,2.13
2019-03-05T00:48:41.300Z,1.90
2019-03-05T00:51:09.729Z,2.40
2019-03-05T00:53:38.085Z,2.27
2019-03-05T00:56:06.436Z,2.10
2019-03-05T00:58:34.709Z,2.57
2019-03-05T01:01:02.948Z,2.30
2019-03-05T01:03:40.256Z,3.20
2019-03-05T01:06:08.505Z,2.43
2019-03-05T01:08:34.871Z,2.60
2019-03-05T01:11:01.326Z,3.13
2019-03-05T01:13:28.023Z,2.80
2019-03-05T01:15:54.463Z,2.00
2019-03-05T01:18:21.043Z,2.40
2019-03-05T01:20:47.391Z,2.27
2019-03-05T01:23:13.863Z,1.73
2019-03-05T01:25:40.618Z,1.70
2019-03-05T01:28:07.099Z,3.17
2019-03-05T01:30:36.446Z,4.10
2019-03-05T01:33:04.711Z,2.77
2019-03-05T01:35:33.104Z,3.70
2019-03-05T01:37:59.548Z,5.90
2019-03-05T01:40:27.945Z,6.20
2019-03-05T01:42:54.290Z,3.60
2019-03-05T01:45:20.771Z,6.13
2019-03-05T01:47:47.119Z,1.63
2019-03-05T01:50:13.606Z,3.60
2019-03-05T01:52:40.228Z,3.23
2019-03-05T01:55:06.736Z,3.13
2019-03-05T01:57:33.311Z,4.37
2019-03-05T01:59:59.851Z,2.30
2019-03-05T02:02:26.208Z,2.40
2019-03-05T02:04:52.675Z,2.17
2019-03-05T02:07:19.061Z,2.40
2019-03-05T02:09:45.432Z,6.67
2019-03-05T02:12:11.986Z,2.17
2019-03-05T02:14:38.451Z,3.53
2019-03-05T02:17:04.813Z,2.43
2019-03-05T02:19:36.186Z,2.13
2019-03-05T02:22:03.748Z,3.73
2019-03-05T02:24:32.040Z,1.83
2019-03-05T02:26:59.578Z,4.57
2019-03-05T02:29:27.908Z,1.87
2019-03-05T02:31:56.281Z,3.23
2019-03-05T02:34:22.433Z,3.27
2019-03-05T02:36:53.752Z,4.00
2019-03-05T02:39:22.200Z,0.60
2019-03-05T02:41:50.763Z,5.80
2019-03-05T02:44:19.016Z,5.43
2019-03-05T02:46:45.411Z,3.97
2019-03-05T02:49:13.782Z,3.23
2019-03-05T02:51:42.234Z,4.03
2019-03-05T02:54:13.614Z,3.10
2019-03-05T02:56:41.900Z,4.00
2019-03-05T02:59:08.967Z,8.73
2019-03-05T03:01:37.231Z,5.23
2019-03-05T03:04:05.686Z,4.97
2019-03-05T03:06:32.454Z,4.73
2019-03-05T03:09:00.806Z,3.13
2019-03-05T03:11:27.196Z,3.43
2019-03-05T03:13:54.460Z,4.03
2019-03-05T03:16:21.136Z,5.77
2019-03-05T03:18:47.480Z,4.03
2019-03-05T03:21:14.070Z,3.93
2019-03-05T03:23:40.611Z,5.97
2019-03-05T03:26:07.119Z,7.53
2019-03-05T03:28:33.519Z,2.23
2019-03-05T03:30:59.976Z,5.47
2019-03-05T03:33:26.439Z,3.60
2019-03-05T03:35:52.894Z,5.63
2019-03-05T03:38:19.465Z,6.83
2019-03-05T03:40:45.849Z,1.73
2019-03-05T03:43:12.316Z,9.33
2019-03-05T03:45:38.758Z,2.57
2019-03-05T03:48:05.237Z,3.20
2019-03-05T03:50:31.588Z,2.57
2019-03-05T03:52:57.951Z,4.43
2019-03-05T03:55:24.658Z,3.40
2019-03-05T03:57:51.226Z,3.57
2019-03-05T04:00:18.676Z,3.60
2019-03-05T04:02:45.140Z,3.60
2019-03-05T04:05:11.574Z,4.80
2019-03-05T04:07:37.952Z,1.93
2019-03-05T04:10:06.005Z,5.13
2019-03-05T04:12:32.466Z,5.40
2019-03-05T04:14:58.860Z,2.10
2019-03-05T04:17:25.325Z,4.00
2019-03-05T04:19:51.776Z,2.97
2019-03-05T04:22:18.224Z,4.10
2019-03-05T04:24:44.703Z,5.07
2019-03-05T04:27:11.077Z,5.50
2019-03-05T04:29:37.545Z,2.67
2019-03-05T04:32:04.104Z,2.30
2019-03-05T04:34:30.670Z,2.73
2019-03-05T04:36:57.226Z,2.00
2019-03-05T04:39:23.592Z,8.20
2019-03-05T04:41:50.039Z,2.90
2019-03-05T04:44:18.435Z,2.23
2019-03-05T04:46:46.787Z,7.00
2019-03-05T04:49:15.176Z,1.73
2019-03-05T04:51:43.524Z,2.63
2019-03-05T04:54:10.043Z,2.23
2019-03-05T04:56:36.492Z,6.07
2019-03-05T04:59:03.048Z,2.17
2019-03-05T05:01:29.486Z,2.30
2019-03-05T05:04:17.970Z,4.03
2019-03-05T05:06:44.914Z,6.63
2019-03-05T05:09:11.582Z,3.97
2019-03-05T05:11:37.922Z,4.47
2019-03-05T05:14:04.401Z,6.47
2019-03-05T05:16:30.855Z,2.67
2019-03-05T05:18:57.245Z,1.73
2019-03-05T05:21:27.407Z,5.83
2019-03-05T05:23:53.863Z,4.37
2019-03-05T05:26:20.527Z,3.33
2019-03-05T05:28:47.083Z,5.80
2019-03-05T05:31:13.551Z,3.80
2019-03-05T05:33:40.001Z,4.77
2019-03-05T05:36:06.382Z,2.90
2019-03-05T05:38:32.835Z,3.27
2019-03-05T05:40:59.407Z,2.63
2019-03-05T05:43:27.062Z,3.10
2019-03-05T05:45:53.755Z,6.63
2019-03-05T05:48:20.130Z,7.43
2019-03-05T05:50:46.498Z,3.20
2019-03-05T05:53:12.946Z,4.43
2019-03-05T05:55:39.435Z,3.70
2019-03-05T05:58:05.888Z,2.20
2019-03-05T06:00:32.954Z,3.37
2019-03-05T06:02:59.399Z,8.00
2019-03-05T06:05:25.771Z,1.90
2019-03-05T06:07:52.214Z,4.50
2019-03-05T06:10:18.666Z,6.93
2019-03-05T06:12:45.027Z,5.73
2019-03-05T06:15:12.074Z,2.73
2019-03-05T06:17:38.550Z,5.17
2019-03-05T06:20:06.932Z,6.30
2019-03-05T06:22:33.391Z,4.13
2019-03-05T06:24:59.944Z,5.73
2019-03-05T06:27:26.412Z,4.03
2019-03-05T06:29:52.871Z,5.57
2019-03-05T06:32:19.334Z,2.80
2019-03-05T06:34:45.788Z,4.77
2019-03-05T06:37:12.259Z,6.23
2019-03-05T06:39:38.639Z,4.07
2019-03-05T06:42:05.008Z,5.60
2019-03-05T06:44:31.464Z,5.87
2019-03-05T06:46:57.938Z,1.90
2019-03-05T06:49:24.535Z,1.67
2019-03-05T06:51:51.018Z,3.20
2019-03-05T06:54:17.522Z,4.20
2019-03-05T06:56:44.092Z,5.80
2019-03-05T06:59:10.551Z,3.37
2019-03-05T07:01:37.030Z,4.53
2019-03-05T07:04:03.480Z,4.00
2019-03-05T07:06:31.779Z,4.67
2019-03-05T07:09:00.058Z,6.93
2019-03-05T07:11:28.313Z,4.23
2019-03-05T07:13:56.690Z,2.73
2019-03-05T07:16:24.933Z,2.07
2019-03-05T07:18:52.700Z,7.63
2019-03-05T07:21:20.947Z,3.40
2019-03-05T07:23:47.432Z,4.70
2019-03-05T07:26:13.810Z,6.20
2019-03-05T07:28:40.266Z,3.93
2019-03-05T07:31:06.615Z,2.60
2019-03-05T07:33:32.999Z,4.93
2019-03-05T07:35:59.427Z,3.97
2019-03-05T07:38:25.900Z,6.40
2019-03-05T07:40:52.251Z,2.20
2019-03-05T07:43:18.730Z,3.27
2019-03-05T07:45:45.071Z,4.23
2019-03-05T07:48:11.542Z,2.93
2019-03-05T07:50:38.086Z,5.17
2019-03-05T07:53:04.547Z,4.57
2019-03-05T07:55:31.037Z,3.90
2019-03-05T07:57:57.503Z,4.47
2019-03-05T08:00:23.875Z,3.93
2019-03-05T08:02:50.255Z,2.60
2019-03-05T08:05:16.699Z,3.73
2019-03-05T08:07:43.171Z,4.00
2019-03-05T08:10:11.544Z,5.33
2019-03-05T08:12:39.795Z,2.43
2019-03-05T08:15:08.160Z,6.13
2019-03-05T08:17:34.550Z,1.77
2019-03-05T08:20:01.023Z,4.17
2019-03-05T08:22:27.467Z,1.97
2019-03-05T08:24:53.945Z,2.87
2019-03-05T08:27:20.487Z,3.27
2019-03-05T08:29:46.889Z,3.47
2019-03-05T08:32:13.495Z,4.23
2019-03-05T08:34:40.151Z,3.30
2019-03-05T08:37:06.619Z,2.40
2019-03-05T08:39:33.082Z,3.40
2019-03-05T08:41:59.535Z,3.43
2019-03-05T08:44:26.028Z,3.87
2019-03-05T08:46:52.364Z,3.63
2019-03-05T08:49:18.835Z,3.13
2019-03-05T08:51:45.299Z,2.30
2019-03-05T08:54:11.805Z,4.57
2019-03-05T08:56:38.281Z,3.77
2019-03-05T08:59:04.993Z,3.23
2019-03-05T09:01:31.539Z,3.37
2019-03-05T09:03:57.971Z,2.07
2019-03-05T09:06:24.435Z,2.43
2019-03-05T09:08:50.875Z,4.30
2019-03-05T09:11:17.352Z,2.30
2019-03-05T09:13:43.815Z,4.23
2019-03-05T09:16:10.188Z,3.57
2019-03-05T09:18:36.668Z,2.60
2019-03-05T09:21:03.309Z,4.53
2019-03-05T09:23:29.758Z,1.40
2019-03-05T09:25:56.326Z,1.77
2019-03-05T09:28:22.778Z,2.33
2019-03-05T09:30:49.242Z,3.47
2019-03-05T09:33:15.627Z,3.80
2019-03-05T09:35:42.103Z,1.67
2019-03-05T09:38:08.748Z,2.00
2019-03-05T09:40:35.230Z,4.03
2019-03-05T09:43:01.675Z,1.73
2019-03-05T09:45:28.416Z,2.10
2019-03-05T09:47:55.148Z,2.20
2019-03-05T09:50:21.588Z,3.17
2019-03-05T09:52:54.849Z,2.83
2019-03-05T09:55:17.798Z,2.47
2019-03-05T09:57:44.470Z,3.07
2019-03-05T10:00:12.328Z,2.30
2019-03-05T10:02:38.693Z,2.73
2019-03-05T10:05:06.843Z,3.23
2019-03-05T10:07:33.467Z,3.37
2019-03-05T10:09:59.816Z,2.80
2019-03-05T10:12:26.295Z,1.83
2019-03-05T10:14:52.644Z,3.87
2019-03-05T10:17:19.088Z,1.87
2019-03-05T10:19:45.552Z,0.90
2019-03-05T10:22:12.027Z,1.53
2019-03-05T10:24:38.378Z,1.07
2019-03-05T10:27:04.999Z,2.47
2019-03-05T10:29:31.947Z,1.53
2019-03-05T10:31:58.523Z,1.37
2019-03-05T10:34:25.071Z,2.33
2019-03-05T10:36:51.723Z,1.07
2019-03-05T10:39:29.637Z,1.63
2019-03-05T10:41:47.646Z,2.13
2019-03-05T10:44:14.018Z,2.37
2019-03-05T10:46:40.353Z,1.67
2019-03-05T10:49:06.743Z,2.00
2019-03-05T10:51:33.087Z,1.17
2019-03-05T10:54:02.038Z,3.30
2019-03-05T10:56:27.960Z,3.33
2019-03-05T10:58:54.352Z,1.70
2019-03-05T11:01:20.907Z,1.23
2019-03-05T11:03:47.362Z,2.73
2019-03-05T11:06:13.818Z,3.50
2019-03-05T11:08:40.395Z,2.30
2019-03-05T11:11:13.485Z,1.43
2019-03-05T11:13:35.222Z,2.70
2019-03-05T11:16:03.279Z,1.53
2019-03-05T11:18:30.170Z,2.57
2019-03-05T11:20:56.699Z,1.23
2019-03-05T11:23:23.174Z,1.47
2019-03-05T11:25:49.618Z,1.70
2019-03-05T11:28:16.098Z,3.60
2019-03-05T11:30:42.477Z,4.20
2019-03-05T11:33:09.034Z,0.70
2019-03-05T11:35:35.554Z,1.43
2019-03-05T11:38:02.147Z,1.60
2019-03-05T11:40:28.619Z,1.33
2019-03-05T11:42:55.082Z,3.33
2019-03-05T11:45:23.448Z,1.30
2019-03-05T11:47:49.892Z,0.93
2019-03-05T11:50:16.672Z,0.77
2019-03-05T11:52:43.634Z,3.13
2019-03-05T11:55:12.056Z,3.83
2019-03-05T11:57:38.519Z,1.27
2019-03-05T12:00:06.887Z,1.40
2019-03-05T12:02:33.241Z,1.53
2019-03-05T12:04:59.630Z,0.93
2019-03-05T12:07:26.076Z,2.20
2019-03-05T12:09:52.457Z,2.77
2019-03-05T12:12:18.902Z,1.07
2019-03-05T12:14:45.366Z,2.87
2019-03-05T12:17:11.915Z,0.90
2019-03-05T12:19:38.290Z,1.57
2019-03-05T12:22:04.742Z,3.50
2019-03-05T12:24:31.098Z,1.93
2019-03-05T12:26:57.574Z,3.17
2019-03-05T12:29:24.027Z,0.83
2019-03-05T12:31:50.507Z,1.93
2019-03-05T12:34:17.068Z,1.43
2019-03-05T12:36:43.539Z,3.73
2019-03-05T12:39:10.820Z,2.23
2019-03-05T12:41:37.188Z,2.20
2019-03-05T12:44:05.387Z,1.23
2019-03-05T12:46:31.910Z,2.60
2019-03-05T12:48:58.367Z,4.67
2019-03-05T12:51:24.829Z,1.07
2019-03-05T12:53:51.251Z,3.17
2019-03-05T12:56:23.918Z,3.03
2019-03-05T12:58:45.992Z,1.40
2019-03-05T13:01:12.470Z,5.10
2019-03-05T13:03:38.908Z,3.03
2019-03-05T13:06:05.378Z,3.53
2019-03-05T13:08:31.727Z,0.90
2019-03-05T13:10:58.203Z,0.57
2019-03-05T13:13:24.579Z,0.87
2019-03-05T13:15:52.947Z,2.83
2019-03-05T13:18:19.503Z,4.20
2019-03-05T13:20:45.859Z,3.73
2019-03-05T13:23:12.330Z,1.73
2019-03-05T13:25:38.681Z,3.47
2019-03-05T13:28:05.151Z,6.90
2019-03-05T13:30:31.510Z,2.70
2019-03-05T13:32:59.187Z,4.00
2019-03-05T13:35:30.379Z,1.83
2019-03-05T13:37:58.697Z,3.30
2019-03-05T13:40:26.152Z,3.40
2019-03-05T13:42:52.725Z,3.73
2019-03-05T13:45:19.371Z,4.67
2019-03-05T13:47:47.742Z,2.37
2019-03-05T13:50:16.108Z,2.20
2019-03-05T13:52:44.468Z,1.90
2019-03-05T13:55:12.866Z,2.13
2019-03-05T13:57:43.541Z,1.73
2019-03-05T14:00:11.096Z,1.50
2019-03-05T14:02:39.580Z,2.10
2019-03-05T14:05:06.946Z,1.77
2019-03-05T14:07:33.417Z,1.03
2019-03-05T14:09:59.790Z,2.50
2019-03-05T14:12:26.375Z,2.70
2019-03-05T14:14:52.710Z,2.07
2019-03-05T14:17:21.098Z,1.83
2019-03-05T14:19:47.652Z,2.40
2019-03-05T14:22:14.190Z,3.77
2019-03-05T14:24:40.986Z,3.07
2019-03-05T14:27:07.618Z,4.07
2019-03-05T14:29:34.116Z,1.30
2019-03-05T14:32:00.653Z,3.03
2019-03-05T14:34:27.116Z,1.77
2019-03-05T14:36:53.480Z,3.67
2019-03-05T14:39:23.084Z,3.83
2019-03-05T14:41:49.535Z,4.27
2019-03-05T14:44:16.096Z,3.50
2019-03-05T14:46:43.756Z,3.33
2019-03-05T14:49:10.258Z,5.07
2019-03-05T14:51:36.676Z,3.70
2019-03-05T14:54:03.223Z,1.93
2019-03-05T14:56:29.691Z,4.33
2019-03-05T14:58:56.404Z,1.23
2019-03-05T15:01:22.867Z,1.57
2019-03-05T15:03:49.323Z,2.90
2019-03-05T15:06:15.818Z,2.23
2019-03-05T15:08:42.215Z,3.07
2019-03-05T15:11:08.724Z,1.30
2019-03-05T15:13:36.635Z,1.30
2019-03-05T15:16:03.267Z,1.30
2019-03-05T15:18:29.742Z,1.67
2019-03-05T15:20:56.183Z,2.93
2019-03-05T15:23:22.681Z,4.33
2019-03-05T15:25:49.181Z,5.57
2019-03-05T15:28:15.680Z,3.80
2019-03-05T15:30:42.200Z,6.23
2019-03-05T15:33:08.847Z,2.53
2019-03-05T15:35:35.294Z,3.37
2019-03-05T15:38:01.771Z,3.07
2019-03-05T15:40:28.257Z,2.33
2019-03-05T15:42:54.774Z,1.53
2019-03-05T15:45:21.372Z,1.50
2019-03-05T15:47:48.077Z,1.23
2019-03-05T15:50:16.342Z,1.83
2019-03-05T15:52:42.811Z,3.07
2019-03-05T15:55:12.858Z,1.57
2019-03-05T15:57:39.335Z,1.77
2019-03-05T16:00:08.093Z,1.70
2019-03-05T16:02:34.562Z,2.23
2019-03-05T16:05:11.416Z,1.93
2019-03-05T16:07:31.120Z,1.57
2019-03-05T16:09:57.667Z,1.80
2019-03-05T16:12:24.056Z,1.53
2019-03-05T16:14:50.712Z,2.73
2019-03-05T16:17:18.674Z,2.37
2019-03-05T16:19:45.243Z,2.53
2019-03-05T16:22:14.328Z,1.97
2019-03-05T16:24:39.999Z,2.00
2019-03-05T16:27:06.377Z,5.60
2019-03-05T16:29:32.759Z,2.30
2019-03-05T16:32:01.159Z,2.67
2019-03-05T16:34:29.503Z,3.00
2019-03-05T16:36:57.791Z,2.73
2019-03-05T16:39:27.278Z,3.43
2019-03-05T16:41:57.377Z,2.90
2019-03-05T16:44:26.600Z,3.03
2019-03-05T16:46:58.901Z,4.07
2019-03-05T16:49:27.560Z,4.13
2019-03-05T16:51:55.943Z,2.00
2019-03-05T16:54:24.337Z,2.90
2019-03-05T16:56:52.633Z,2.97
2019-03-05T16:59:20.991Z,2.93
2019-03-05T17:01:49.591Z,2.90
2019-03-05T17:04:17.869Z,2.97
2019-03-05T17:06:46.224Z,5.87
2019-03-05T17:09:14.486Z,4.13
2019-03-05T17:11:42.849Z,2.57
2019-03-05T17:14:09.523Z,3.13
2019-03-05T17:16:36.193Z,2.50
2019-03-05T17:19:02.780Z,4.27
2019-03-05T17:21:29.163Z,5.20
2019-03-05T17:23:55.536Z,1.97
2019-03-05T17:26:22.007Z,2.20
2019-03-05T17:28:48.508Z,3.40
2019-03-05T17:31:15.126Z,2.50
2019-03-05T17:33:41.694Z,3.10
2019-03-05T17:36:08.168Z,3.27
2019-03-05T17:38:34.635Z,4.70
2019-03-05T17:41:01.087Z,2.63
2019-03-05T17:43:27.462Z,2.43
2019-03-05T17:45:54.015Z,3.40
2019-03-05T17:48:20.387Z,5.30
2019-03-05T17:50:46.968Z,4.77
2019-03-05T17:53:13.435Z,4.30
2019-03-05T17:55:39.810Z,5.23
2019-03-05T17:58:08.276Z,5.07
2019-03-05T18:00:36.631Z,5.47
2019-03-05T18:03:03.509Z,5.13
2019-03-05T18:05:30.056Z,8.53
2019-03-05T18:07:56.522Z,5.50
2019-03-05T18:10:23.278Z,7.23
2019-03-05T18:12:49.639Z,7.23
2019-03-05T18:15:16.113Z,12.20
2019-03-05T18:17:42.658Z,7.40
2019-03-05T18:20:11.026Z,7.07
2019-03-05T18:22:37.584Z,6.73
2019-03-05T18:25:06.042Z,8.17
2019-03-05T18:27:32.394Z,5.50
2019-03-05T18:29:58.860Z,4.60
2019-03-05T18:32:25.422Z,6.20
2019-03-05T18:34:53.695Z,5.73
2019-03-05T18:37:20.150Z,3.30
2019-03-05T18:39:46.713Z,5.77
2019-03-05T18:42:13.105Z,4.80
2019-03-05T18:44:39.574Z,5.37
2019-03-05T18:47:06.234Z,5.83
2019-03-05T18:49:32.605Z,5.10
2019-03-05T18:51:59.059Z,4.47
2019-03-05T18:54:25.572Z,5.03
2019-03-05T18:56:52.049Z,5.30
2019-03-05T18:59:18.498Z,4.20
2019-03-05T19:01:44.889Z,5.80
2019-03-05T19:04:11.240Z,7.50
2019-03-05T19:06:37.611Z,8.43
2019-03-05T19:09:04.966Z,7.17
2019-03-05T19:11:31.543Z,9.53
2019-03-05T19:13:59.903Z,14.20
2019-03-05T19:16:26.366Z,19.10
2019-03-05T19:18:52.944Z,16.40
2019-03-05T19:21:19.487Z,15.13
2019-03-05T19:23:46.047Z,16.20
2019-03-05T19:26:12.520Z,20.23
2019-03-05T19:28:38.971Z,19.87
2019-03-05T19:31:05.442Z,22.63
2019-03-05T19:33:31.814Z,14.77
2019-03-05T19:35:58.291Z,12.43
2019-03-05T19:38:24.643Z,16.50
2019-03-05T19:40:51.129Z,12.80
2019-03-05T19:43:17.575Z,12.17
2019-03-05T19:45:43.918Z,11.33
2019-03-05T19:48:10.523Z,10.00
2019-03-05T19:50:36.984Z,8.43
2019-03-05T19:53:03.556Z,10.07
2019-03-05T19:55:30.052Z,9.37
2019-03-05T19:57:58.451Z,10.53
2019-03-05T20:00:26.833Z,11.73
2019-03-05T20:02:53.420Z,13.93
2019-03-05T20:05:20.068Z,16.10
2019-03-05T20:07:46.580Z,14.60
2019-03-05T20:10:15.308Z,18.77
2019-03-05T20:12:41.771Z,24.27
2019-03-05T20:15:10.131Z,18.20
2019-03-05T20:17:36.663Z,16.80
2019-03-05T20:20:03.794Z,14.70
2019-03-05T20:22:30.192Z,12.63
2019-03-05T20:24:56.635Z,15.90
2019-03-05T20:27:23.016Z,21.00
2019-03-05T20:29:49.372Z,26.23
2019-03-05T20:32:15.739Z,27.20
2019-03-05T20:34:42.295Z,24.53
2019-03-05T20:37:08.768Z,29.83
2019-03-05T20:39:35.217Z,24.17
2019-03-05T20:42:01.692Z,20.17
2019-03-05T20:44:28.142Z,20.37
2019-03-05T20:46:56.004Z,18.87
2019-03-05T20:49:24.359Z,20.53
2019-03-05T20:51:50.836Z,18.43
2019-03-05T20:54:17.229Z,17.47
2019-03-05T20:56:43.788Z,20.77
2019-03-05T20:59:10.360Z,17.43
2019-03-05T21:01:36.727Z,21.03
2019-03-05T21:04:03.614Z,23.87
2019-03-05T21:06:29.978Z,25.87
2019-03-05T21:08:56.451Z,20.77
2019-03-05T21:11:22.803Z,17.73
2019-03-05T21:13:49.184Z,20.20
2019-03-05T21:16:15.543Z,29.10
2019-03-05T21:18:42.232Z,30.13
2019-03-05T21:21:08.787Z,26.70
2019-03-05T21:23:35.246Z,20.17
2019-03-05T21:26:01.703Z,24.57
2019-03-05T21:28:28.180Z,22.23
2019-03-05T21:30:54.625Z,17.50
2019-03-05T21:33:22.753Z,19.03
2019-03-05T21:35:49.267Z,18.30
2019-03-05T21:38:15.652Z,14.53
2019-03-05T21:40:42.023Z,14.53
2019-03-05T21:43:08.599Z,16.13
2019-03-05T21:45:36.459Z,13.97
2019-03-05T21:48:03.646Z,15.33
2019-03-05T21:50:30.287Z,17.77
2019-03-05T21:52:56.994Z,16.63
2019-03-05T21:55:23.714Z,18.93
2019-03-05T21:57:50.183Z,24.10
2019-03-05T22:00:18.548Z,30.63
2019-03-05T22:02:45.016Z,30.93
2019-03-05T22:05:11.487Z,24.40
2019-03-05T22:07:37.838Z,26.43
2019-03-05T22:10:06.158Z,23.60
2019-03-05T22:12:32.516Z,22.60
2019-03-05T22:14:59.238Z,20.13
2019-03-05T22:17:25.920Z,20.87
2019-03-05T22:19:52.375Z,34.83
2019-03-05T22:22:18.831Z,51.77
2019-03-05T22:24:45.196Z,51.30
2019-03-05T22:27:11.583Z,34.83
2019-03-05T22:29:38.060Z,28.87
2019-03-05T22:32:04.502Z,25.20
2019-03-05T22:34:31.151Z,20.73
2019-03-05T22:36:57.687Z,19.40
2019-03-05T22:39:24.259Z,22.40
2019-03-05T22:41:50.834Z,21.53
2019-03-05T22:44:20.999Z,22.50
2019-03-05T22:46:47.815Z,17.83
2019-03-05T22:49:14.396Z,18.20
2019-03-05T22:51:40.980Z,16.70
2019-03-05T22:54:07.407Z,15.43
2019-03-05T22:56:33.894Z,18.20
2019-03-05T22:59:00.740Z,19.93
2019-03-05T23:01:29.006Z,18.87
2019-03-05T23:03:55.556Z,16.83
2019-03-05T23:06:22.242Z,18.53
2019-03-05T23:08:48.612Z,20.20
2019-03-05T23:11:15.176Z,15.73
2019-03-05T23:13:42.066Z,18.93
2019-03-05T23:16:08.827Z,20.57
2019-03-05T23:18:35.379Z,19.43
2019-03-05T23:21:02.065Z,21.10
2019-03-05T23:23:28.671Z,21.20
2019-03-05T23:25:58.091Z,23.10
2019-03-05T23:28:24.544Z,18.87
2019-03-05T23:30:51.138Z,23.27
2019-03-05T23:33:17.895Z,22.43
2019-03-05T23:35:44.359Z,24.90
2019-03-05T23:38:10.822Z,27.17
2019-03-05T23:40:37.279Z,23.57
2019-03-05T23:43:04.169Z,25.80
2019-03-05T23:45:30.727Z,27.87
2019-03-05T23:47:58.502Z,24.73
2019-03-05T23:50:24.974Z,22.17
2019-03-05T23:52:51.445Z,24.17
2019-03-05T23:55:17.923Z,25.73
2019-03-05T23:57:44.499Z,26.90
